createdAt,value
2022-12-19T00:00:14.979Z,19.58
2022-12-19T00:02:42.722Z,19.25
2022-12-19T00:05:11.413Z,18.83
2022-12-19T00:07:39.538Z,21.17
2022-12-19T00:10:07.694Z,21.08
2022-12-19T00:12:35.117Z,20.85
2022-12-19T00:15:02.663Z,18.63
2022-12-19T00:17:30.296Z,18.05
2022-12-19T00:19:58.042Z,16.75
2022-12-19T00:22:25.710Z,19.73
2022-12-19T00:24:52.979Z,18.23
2022-12-19T00:27:20.589Z,20.73
2022-12-19T00:29:48.531Z,19.38
2022-12-19T00:32:16.691Z,24.75
2022-12-19T00:34:44.240Z,18.10
2022-12-19T00:37:12.231Z,19.40
2022-12-19T00:39:39.993Z,19.73
2022-12-19T00:42:07.464Z,18.35
2022-12-19T00:44:34.745Z,19.75
2022-12-19T00:47:02.591Z,17.42
2022-12-19T00:49:31.159Z,19.60
2022-12-19T00:52:00.043Z,19.75
2022-12-19T00:54:27.408Z,19.35
2022-12-19T00:56:55.587Z,18.27
2022-12-19T00:59:26.862Z,19.02
2022-12-19T01:01:57.864Z,19.95
2022-12-19T01:04:28.905Z,18.08
2022-12-19T01:07:01.864Z,19.85
2022-12-19T01:09:34.625Z,17.50
2022-12-19T01:12:24.341Z,17.65
2022-12-19T01:15:04.858Z,18.00
2022-12-19T01:17:43.807Z,18.65
2022-12-19T01:20:22.224Z,19.27
2022-12-19T01:23:00.234Z,20.92
2022-12-19T01:25:28.945Z,17.40
2022-12-19T01:27:57.372Z,18.30
2022-12-19T01:30:25.007Z,17.77
2022-12-19T01:32:53.700Z,16.75
2022-12-19T01:35:22.233Z,18.05
2022-12-19T01:37:51.326Z,18.95
2022-12-19T01:40:19.908Z,17.05
2022-12-19T01:42:49.182Z,14.80
2022-12-19T01:45:17.352Z,17.20
2022-12-19T01:48:10.615Z,15.90
2022-12-19T01:50:42.965Z,16.23
2022-12-19T01:53:48.942Z,15.70
2022-12-19T01:56:24.907Z,16.50
2022-12-19T01:58:56.120Z,15.93
2022-12-19T02:01:50.919Z,15.80
2022-12-19T02:04:25.545Z,14.38
2022-12-19T02:06:55.361Z,14.20
2022-12-19T02:09:25.188Z,14.55
2022-12-19T02:11:53.822Z,16.83
2022-12-19T02:14:21.782Z,16.27
2022-12-19T02:16:52.716Z,16.35
2022-12-19T02:19:52.536Z,14.63
2022-12-19T02:22:34.595Z,15.52
2022-12-19T02:25:05.262Z,14.20
2022-12-19T02:28:01.852Z,16.60
2022-12-19T02:30:36.087Z,14.70
2022-12-19T02:33:08.690Z,16.02
2022-12-19T02:35:41.247Z,19.10
2022-12-19T02:38:28.676Z,14.60
2022-12-19T02:41:01.577Z,15.15
2022-12-19T02:43:31.491Z,16.67
2022-12-19T02:45:59.892Z,17.63
2022-12-19T02:48:27.780Z,17.25
2022-12-19T02:50:55.355Z,17.83
2022-12-19T02:53:23.931Z,18.55
2022-12-19T02:56:21.426Z,17.08
2022-12-19T02:59:23.647Z,15.88
2022-12-19T03:02:04.302Z,18.00
2022-12-19T03:04:47.771Z,16.63
2022-12-19T03:07:37.678Z,14.55
2022-12-19T03:10:15.108Z,20.25
2022-12-19T03:13:00.816Z,15.18
2022-12-19T03:15:28.710Z,13.70
2022-12-19T03:17:58.221Z,16.25
2022-12-19T03:20:28.800Z,15.27
2022-12-19T03:22:56.133Z,17.40
2022-12-19T03:25:24.358Z,17.25
2022-12-19T03:27:53.300Z,13.77
2022-12-19T03:30:21.086Z,15.73
2022-12-19T03:32:48.846Z,19.17
2022-12-19T03:35:20.843Z,15.82
2022-12-19T03:37:50.478Z,17.30
2022-12-19T03:40:20.368Z,16.33
2022-12-19T03:45:40.169Z,13.23
2022-12-19T03:48:11.258Z,15.70
2022-12-19T03:50:50.859Z,14.18
2022-12-19T03:53:30.663Z,11.70
2022-12-19T03:56:30.135Z,16.58
2022-12-19T03:59:08.921Z,14.63
2022-12-19T04:01:36.832Z,15.02
2022-12-19T04:04:05.094Z,13.77
2022-12-19T04:06:33.768Z,17.50
2022-12-19T04:09:01.452Z,12.27
2022-12-19T04:11:34.069Z,14.05
2022-12-19T04:14:04.655Z,13.63
2022-12-19T04:17:10.504Z,15.02
2022-12-19T04:19:44.086Z,20.02
2022-12-19T04:23:04.170Z,15.88
2022-12-19T04:25:35.651Z,13.38
2022-12-19T04:28:06.066Z,12.98
2022-12-19T04:30:36.825Z,14.57
2022-12-19T04:33:04.598Z,13.00
2022-12-19T04:35:32.686Z,12.60
2022-12-19T04:38:00.416Z,18.83
2022-12-19T04:40:28.393Z,14.50
2022-12-19T04:42:55.872Z,15.07
2022-12-19T04:45:23.378Z,12.73
2022-12-19T04:47:51.152Z,11.95
2022-12-19T04:50:18.937Z,13.07
2022-12-19T04:52:46.523Z,13.45
2022-12-19T04:55:13.940Z,11.45
2022-12-19T04:57:41.392Z,12.88
2022-12-19T05:00:09.782Z,10.50
2022-12-19T05:02:38.418Z,12.45
2022-12-19T05:05:06.148Z,12.38
2022-12-19T05:07:33.637Z,10.80
2022-12-19T05:10:01.787Z,12.70
2022-12-19T05:12:29.731Z,12.63
2022-12-19T05:14:57.056Z,13.07
2022-12-19T05:17:24.530Z,13.75
2022-12-19T05:19:52.098Z,11.45
2022-12-19T05:22:19.644Z,10.80
2022-12-19T05:24:47.122Z,9.35
2022-12-19T05:27:15.717Z,15.25
2022-12-19T05:29:43.325Z,12.82
2022-12-19T05:32:10.769Z,15.00
2022-12-19T05:34:38.175Z,10.38
2022-12-19T05:37:05.582Z,12.82
2022-12-19T05:39:32.976Z,14.07
2022-12-19T05:42:00.850Z,10.82
2022-12-19T05:44:28.469Z,12.10
2022-12-19T05:46:55.814Z,11.88
2022-12-19T05:49:23.164Z,9.60
2022-12-19T05:51:52.319Z,14.20
2022-12-19T05:54:19.902Z,12.80
2022-12-19T05:56:47.215Z,12.68
2022-12-19T05:59:14.555Z,12.85
2022-12-19T06:01:42.633Z,9.65
2022-12-19T06:04:10.382Z,12.05
2022-12-19T06:06:38.149Z,11.75
2022-12-19T06:09:05.521Z,12.40
2022-12-19T06:11:33.156Z,14.70
2022-12-19T06:14:00.933Z,12.35
2022-12-19T06:16:28.657Z,10.30
2022-12-19T06:18:56.082Z,11.88
2022-12-19T06:21:23.730Z,12.40
2022-12-19T06:23:51.741Z,13.50
2022-12-19T06:26:20.784Z,13.57
2022-12-19T06:28:49.408Z,10.23
2022-12-19T06:31:19.180Z,14.70
2022-12-19T06:33:46.826Z,11.48
2022-12-19T06:36:20.216Z,11.52
2022-12-19T06:38:48.966Z,10.40
2022-12-19T06:41:35.945Z,11.45
2022-12-19T06:44:06.319Z,12.00
2022-12-19T06:46:34.556Z,11.48
2022-12-19T06:49:02.214Z,13.30
2022-12-19T06:51:30.230Z,11.82
2022-12-19T06:53:57.677Z,11.00
2022-12-19T06:56:25.378Z,11.90
2022-12-19T06:58:53.077Z,13.30
2022-12-19T07:01:34.889Z,12.05
2022-12-19T07:04:02.400Z,10.38
2022-12-19T07:06:29.981Z,10.57
2022-12-19T07:08:57.840Z,10.68
2022-12-19T07:11:25.513Z,10.48
2022-12-19T07:13:52.852Z,13.98
2022-12-19T07:16:20.752Z,10.93
2022-12-19T07:18:49.571Z,11.15
2022-12-19T07:21:17.189Z,15.60
2022-12-19T07:23:44.947Z,11.63
2022-12-19T07:26:12.861Z,19.40
2022-12-19T07:28:40.767Z,15.43
2022-12-19T07:31:08.553Z,12.38
2022-12-19T07:33:35.859Z,17.00
2022-12-19T07:36:03.228Z,17.33
2022-12-19T07:38:30.747Z,12.30
2022-12-19T07:41:01.690Z,10.68
2022-12-19T07:43:29.268Z,9.98
2022-12-19T07:45:56.934Z,10.82
2022-12-19T07:48:24.534Z,12.63
2022-12-19T07:50:52.055Z,13.13
2022-12-19T07:53:19.643Z,14.15
2022-12-19T07:55:50.803Z,12.75
2022-12-19T07:58:18.436Z,12.52
2022-12-19T08:00:45.962Z,12.23
2022-12-19T08:03:13.424Z,15.38
2022-12-19T08:05:40.948Z,17.10
2022-12-19T08:08:08.897Z,11.35
2022-12-19T08:10:36.542Z,10.18
2022-12-19T08:13:03.812Z,10.63
2022-12-19T08:15:31.401Z,16.73
2022-12-19T08:17:59.179Z,14.90
2022-12-19T08:20:26.737Z,15.20
2022-12-19T08:22:54.459Z,10.20
2022-12-19T08:25:21.696Z,13.05
2022-12-19T08:27:49.166Z,12.55
2022-12-19T08:30:16.768Z,12.52
2022-12-19T08:32:45.399Z,11.27
2022-12-19T08:35:12.832Z,11.88
2022-12-19T08:37:40.171Z,12.23
2022-12-19T08:40:08.653Z,12.65
2022-12-19T08:42:36.241Z,12.10
2022-12-19T08:45:04.949Z,11.15
2022-12-19T08:47:35.979Z,10.93
2022-12-19T08:50:04.561Z,11.05
2022-12-19T08:52:31.863Z,13.95
2022-12-19T08:54:59.381Z,13.65
2022-12-19T08:57:26.938Z,11.32
2022-12-19T08:59:54.482Z,14.43
2022-12-19T09:02:24.273Z,13.40
2022-12-19T09:06:00.270Z,13.93
2022-12-19T09:07:41.158Z,9.90
2022-12-19T09:10:08.714Z,10.73
2022-12-19T09:12:36.050Z,11.70
2022-12-19T09:15:03.899Z,12.25
2022-12-19T09:17:31.753Z,10.65
2022-12-19T09:19:59.141Z,11.10
2022-12-19T09:22:27.771Z,9.10
2022-12-19T09:24:59.641Z,9.88
2022-12-19T09:27:27.203Z,11.70
2022-12-19T09:29:54.465Z,11.98
2022-12-19T09:32:22.069Z,10.18
2022-12-19T09:34:49.912Z,11.45
2022-12-19T09:37:19.055Z,12.48
2022-12-19T09:39:47.015Z,10.07
2022-12-19T09:42:50.598Z,12.52
2022-12-19T09:45:31.650Z,12.77
2022-12-19T09:48:02.565Z,12.65
2022-12-19T09:50:45.792Z,11.82
2022-12-19T09:53:21.628Z,16.75
2022-12-19T09:55:52.638Z,11.25
2022-12-19T09:58:36.815Z,12.98
2022-12-19T10:01:21.433Z,12.95
2022-12-19T10:04:00.541Z,15.13
2022-12-19T10:07:12.467Z,12.48
2022-12-19T10:11:21.812Z,10.93
2022-12-19T10:12:44.610Z,12.55
2022-12-19T10:15:35.772Z,12.63
2022-12-19T10:18:33.242Z,13.98
2022-12-19T10:21:11.860Z,12.70
2022-12-19T10:23:50.171Z,14.13
2022-12-19T10:26:37.502Z,12.80
2022-12-19T10:29:35.691Z,14.20
2022-12-19T10:32:13.293Z,13.88
2022-12-19T10:34:43.353Z,12.77
2022-12-19T10:37:26.783Z,11.65
2022-12-19T10:40:04.802Z,14.85
2022-12-19T10:42:45.858Z,11.63
2022-12-19T10:45:19.634Z,14.55
2022-12-19T10:47:48.666Z,13.70
2022-12-19T10:50:25.902Z,10.30
2022-12-19T10:52:56.957Z,13.52
2022-12-19T10:55:37.051Z,10.10
2022-12-19T10:58:25.020Z,12.07
2022-12-19T11:01:00.358Z,11.77
2022-12-19T11:03:28.260Z,8.80
2022-12-19T11:05:58.545Z,11.43
2022-12-19T11:08:33.663Z,9.70
2022-12-19T11:13:24.753Z,14.43
2022-12-19T11:17:11.760Z,30.50
2022-12-19T11:23:16.737Z,21.85
2022-12-19T11:29:19.132Z,9.30
2022-12-19T11:29:41.073Z,9.20
2022-12-19T11:29:45.691Z,9.60
2022-12-19T11:30:45.728Z,10.38
2022-12-19T11:34:19.079Z,10.07
2022-12-19T11:37:05.099Z,7.43
2022-12-19T11:39:39.321Z,7.63
2022-12-19T11:42:30.650Z,7.72
2022-12-19T11:45:11.812Z,12.90
2022-12-19T11:47:45.427Z,11.35
2022-12-19T11:50:18.960Z,9.43
2022-12-19T11:53:16.673Z,12.00
2022-12-19T11:55:56.403Z,11.98
2022-12-19T11:58:25.330Z,13.88
2022-12-19T12:01:05.587Z,10.38
2022-12-19T12:06:13.769Z,7.93
2022-12-19T12:12:10.424Z,8.63
2022-12-19T12:19:13.728Z,8.63
2022-12-19T12:21:44.148Z,10.20
2022-12-19T12:29:49.688Z,7.57
2022-12-19T12:31:18.281Z,8.95
2022-12-19T12:31:46.439Z,8.35
2022-12-19T12:31:57.406Z,9.85
2022-12-19T12:35:45.389Z,9.13
2022-12-19T12:38:00.446Z,10.43
2022-12-19T12:38:36.067Z,11.63
2022-12-19T12:41:10.642Z,11.02
2022-12-19T12:44:02.552Z,9.23
2022-12-19T12:46:37.331Z,9.35
2022-12-19T12:49:07.262Z,6.57
2022-12-19T12:51:37.047Z,7.25
2022-12-19T12:54:11.123Z,11.98
2022-12-19T12:56:39.209Z,9.00
2022-12-19T12:59:22.741Z,9.75
2022-12-19T13:02:21.410Z,8.40
2022-12-19T13:05:00.163Z,9.23
2022-12-19T13:07:42.043Z,9.25
2022-12-19T13:10:16.677Z,5.25
2022-12-19T13:13:02.856Z,8.68
2022-12-19T13:15:32.104Z,7.28
2022-12-19T13:18:09.425Z,7.97
2022-12-19T13:20:45.284Z,6.35
2022-12-19T13:23:32.124Z,6.25
2022-12-19T13:25:59.587Z,6.35
2022-12-19T13:28:26.829Z,8.93
2022-12-19T13:31:20.550Z,11.02
2022-12-19T13:33:55.145Z,11.60
2022-12-19T13:39:49.008Z,8.48
2022-12-19T13:40:11.013Z,7.35
2022-12-19T13:43:10.435Z,9.32
2022-12-19T13:45:40.996Z,10.68
2022-12-19T13:48:16.138Z,8.73
2022-12-19T13:50:44.430Z,7.15
2022-12-19T13:53:16.363Z,7.40
2022-12-19T13:55:43.998Z,6.20
2022-12-19T13:58:29.736Z,7.90
2022-12-19T14:01:01.426Z,10.57
2022-12-19T14:03:38.600Z,7.10
2022-12-19T14:06:19.621Z,9.02
2022-12-19T14:09:46.247Z,6.53
2022-12-19T14:13:44.343Z,9.77
2022-12-19T14:14:47.345Z,11.18
2022-12-19T14:17:18.575Z,7.80
2022-12-19T14:19:48.620Z,5.57
2022-12-19T14:22:25.441Z,7.70
2022-12-19T14:25:49.292Z,7.15
2022-12-19T14:28:23.323Z,6.43
2022-12-19T14:30:56.483Z,5.80
2022-12-19T14:33:44.324Z,9.60
2022-12-19T14:36:25.709Z,5.68
2022-12-19T14:39:22.152Z,9.00
2022-12-19T14:42:02.740Z,11.52
2022-12-19T14:53:52.527Z,7.28
2022-12-19T14:54:16.485Z,7.97
2022-12-19T14:54:16.868Z,6.85
2022-12-19T14:54:35.864Z,8.80
2022-12-19T14:56:31.073Z,8.40
2022-12-19T14:59:00.616Z,8.15
2022-12-19T15:01:30.819Z,9.40
2022-12-19T15:04:49.127Z,8.20
2022-12-19T15:11:03.401Z,8.95
2022-12-19T15:14:04.097Z,7.55
2022-12-19T15:15:47.911Z,9.40
2022-12-19T15:18:19.919Z,6.60
2022-12-19T15:20:47.287Z,8.18
2022-12-19T15:23:21.544Z,7.53
2022-12-19T15:26:07.398Z,11.65
2022-12-19T15:28:43.098Z,8.93
2022-12-19T15:31:27.808Z,7.88
2022-12-19T15:36:42.688Z,7.05
2022-12-19T15:39:09.958Z,6.47
2022-12-19T15:41:37.277Z,6.18
2022-12-19T15:44:20.898Z,9.13
2022-12-19T15:46:49.484Z,7.65
2022-12-19T15:49:19.102Z,7.35
2022-12-19T15:51:47.152Z,7.55
2022-12-19T15:54:47.272Z,7.97
2022-12-19T15:57:02.144Z,7.40
2022-12-19T15:59:37.699Z,7.43
2022-12-19T16:02:16.529Z,7.00
2022-12-19T16:04:44.892Z,7.85
2022-12-19T16:07:19.620Z,9.05
2022-12-19T16:09:48.101Z,7.75
2022-12-19T16:12:22.079Z,6.32
2022-12-19T16:14:55.277Z,8.93
2022-12-19T16:17:23.988Z,7.88
2022-12-19T16:19:51.884Z,13.63
2022-12-19T16:22:22.436Z,8.02
2022-12-19T16:24:51.056Z,6.85
2022-12-19T16:27:24.486Z,9.13
2022-12-19T16:29:52.166Z,10.15
2022-12-19T16:32:20.295Z,9.07
2022-12-19T16:34:47.553Z,5.78
2022-12-19T16:37:15.429Z,8.20
2022-12-19T16:39:42.710Z,8.27
2022-12-19T16:42:17.576Z,7.18
2022-12-19T16:44:48.293Z,13.85
2022-12-19T16:47:17.723Z,11.73
2022-12-19T16:49:45.325Z,7.00
2022-12-19T16:52:12.760Z,7.35
2022-12-19T16:54:40.406Z,9.70
2022-12-19T16:57:18.719Z,8.77
2022-12-19T16:59:46.388Z,9.27
2022-12-19T17:02:29.132Z,10.23
2022-12-19T17:04:56.736Z,8.63
2022-12-19T17:07:24.037Z,9.30
2022-12-19T17:09:51.468Z,8.55
2022-12-19T17:12:19.082Z,10.07
2022-12-19T17:14:46.480Z,8.45
2022-12-19T17:17:15.500Z,7.75
2022-12-19T17:19:45.129Z,11.63
2022-12-19T17:22:14.163Z,8.05
2022-12-19T17:24:42.144Z,10.02
2022-12-19T17:27:09.630Z,8.85
2022-12-19T17:29:36.956Z,6.63
2022-12-19T17:32:06.794Z,8.32
2022-12-19T17:34:34.977Z,7.97
2022-12-19T17:37:04.559Z,8.95
2022-12-19T17:39:33.105Z,6.93
2022-12-19T17:42:24.259Z,7.40
2022-12-19T17:44:51.953Z,6.95
2022-12-19T17:47:20.868Z,9.15
2022-12-19T17:49:48.903Z,9.25
2022-12-19T17:52:18.118Z,8.88
2022-12-19T17:54:45.694Z,7.32
2022-12-19T17:57:17.584Z,7.45
2022-12-19T17:59:46.792Z,7.65
2022-12-19T18:02:21.676Z,19.70
2022-12-19T18:04:50.077Z,10.30
2022-12-19T18:07:19.209Z,10.05
2022-12-19T18:09:46.756Z,8.48
2022-12-19T18:12:14.352Z,9.48
2022-12-19T18:14:41.816Z,6.90
2022-12-19T18:17:12.357Z,8.95
2022-12-19T18:19:40.086Z,8.38
2022-12-19T18:22:14.112Z,10.98
2022-12-19T18:24:42.055Z,9.57
2022-12-19T18:27:09.444Z,10.00
2022-12-19T18:29:37.106Z,11.13
2022-12-19T18:32:04.628Z,8.68
2022-12-19T18:34:33.636Z,8.55
2022-12-19T18:37:02.215Z,10.70
2022-12-19T18:39:30.758Z,11.57
2022-12-19T18:41:58.045Z,13.65
2022-12-19T18:44:25.369Z,10.73
2022-12-19T18:46:53.039Z,10.18
2022-12-19T18:49:20.792Z,8.75
2022-12-19T18:51:48.358Z,12.05
2022-12-19T18:54:18.937Z,10.30
2022-12-19T18:56:47.085Z,10.50
2022-12-19T18:59:14.748Z,10.00
2022-12-19T19:01:46.938Z,9.55
2022-12-19T19:04:17.779Z,12.65
2022-12-19T19:06:50.967Z,9.38
2022-12-19T19:09:20.472Z,17.50
2022-12-19T19:12:06.517Z,14.00
2022-12-19T19:14:33.958Z,16.85
2022-12-19T19:17:01.587Z,22.15
2022-12-19T19:19:29.087Z,18.67
2022-12-19T19:21:56.281Z,20.90
2022-12-19T19:24:24.049Z,18.13
2022-12-19T19:26:51.304Z,13.88
2022-12-19T19:29:19.790Z,12.10
2022-12-19T19:31:49.847Z,12.15
2022-12-19T19:34:25.117Z,14.52
2022-12-19T19:36:56.047Z,9.45
2022-12-19T19:39:23.922Z,12.73
2022-12-19T19:41:51.330Z,12.93
2022-12-19T19:44:18.694Z,13.05
2022-12-19T19:46:46.228Z,8.75
2022-12-19T19:49:13.629Z,9.07
2022-12-19T19:51:41.023Z,8.95
2022-12-19T19:54:08.349Z,6.75
2022-12-19T19:56:35.673Z,10.55
2022-12-19T19:59:03.120Z,9.05
2022-12-19T20:01:30.589Z,11.57
2022-12-19T20:03:57.942Z,9.85
2022-12-19T20:06:25.611Z,6.90
2022-12-19T20:08:53.007Z,6.22
2022-12-19T20:11:20.808Z,8.23
2022-12-19T20:13:48.152Z,10.27
2022-12-19T20:16:18.106Z,7.07
2022-12-19T20:21:20.230Z,7.13
2022-12-19T20:23:47.570Z,9.73
2022-12-19T20:26:16.781Z,8.30
2022-12-19T20:28:49.288Z,13.20
2022-12-19T20:31:22.562Z,8.77
2022-12-19T20:33:53.182Z,7.28
2022-12-19T20:36:20.632Z,8.07
2022-12-19T20:38:48.550Z,6.82
2022-12-19T20:41:16.583Z,8.48
2022-12-19T20:43:44.872Z,7.13
2022-12-19T20:46:18.138Z,7.32
2022-12-19T20:48:46.732Z,5.85
2022-12-19T20:51:15.523Z,7.90
2022-12-19T20:53:44.970Z,8.63
2022-12-19T20:56:15.589Z,9.35
2022-12-19T20:58:43.052Z,10.35
2022-12-19T21:01:15.986Z,7.63
2022-12-19T21:03:45.630Z,7.60
2022-12-19T21:06:18.368Z,7.85
2022-12-19T21:08:46.128Z,8.90
2022-12-19T21:11:15.385Z,9.63
2022-12-19T21:13:43.058Z,21.30
2022-12-19T21:16:17.457Z,7.43
2022-12-19T21:18:46.646Z,7.68
2022-12-19T21:21:16.589Z,6.43
2022-12-19T21:23:45.542Z,8.05
2022-12-19T21:26:12.930Z,8.15
2022-12-19T21:28:40.379Z,9.40
2022-12-19T21:31:20.141Z,10.73
2022-12-19T21:33:47.983Z,9.02
2022-12-19T21:36:20.806Z,10.75
2022-12-19T21:38:49.937Z,9.63
2022-12-19T21:41:19.239Z,11.32
2022-12-19T21:43:53.574Z,6.40
2022-12-19T21:46:27.340Z,8.27
2022-12-19T21:48:57.092Z,8.57
2022-12-19T21:51:31.896Z,7.32
2022-12-19T21:54:01.888Z,7.57
2022-12-19T21:56:40.300Z,5.70
2022-12-19T21:59:13.578Z,7.68
2022-12-19T22:01:42.735Z,8.60
2022-12-19T22:04:16.448Z,6.60
2022-12-19T22:06:44.465Z,8.32
2022-12-19T22:09:25.227Z,9.68
2022-12-19T22:11:56.277Z,7.03
2022-12-19T22:14:23.881Z,6.80
2022-12-19T22:17:02.639Z,5.45
2022-12-19T22:19:30.154Z,8.63
2022-12-19T22:21:57.670Z,9.27
2022-12-19T22:24:27.746Z,6.97
2022-12-19T22:26:57.380Z,7.65
2022-12-19T22:29:24.800Z,8.57
2022-12-19T22:31:52.472Z,9.25
2022-12-19T22:34:21.401Z,10.13
2022-12-19T22:36:49.300Z,8.02
2022-12-19T22:39:20.276Z,9.98
2022-12-19T22:41:47.763Z,9.27
2022-12-19T22:44:21.245Z,8.02
2022-12-19T22:46:49.603Z,8.05
2022-12-19T22:49:17.710Z,11.13
2022-12-19T22:51:45.424Z,8.20
2022-12-19T22:54:13.595Z,7.05
2022-12-19T22:56:41.762Z,8.45
2022-12-19T22:59:11.140Z,11.20
2022-12-19T23:01:42.442Z,8.37
2022-12-19T23:04:12.965Z,6.57
2022-12-19T23:06:42.332Z,6.63
2022-12-19T23:09:14.185Z,9.88
2022-12-19T23:11:44.157Z,7.78
2022-12-19T23:14:14.646Z,8.73
2022-12-19T23:16:44.020Z,11.50
2022-12-19T23:19:12.250Z,9.48
2022-12-19T23:21:39.524Z,8.93
2022-12-19T23:24:07.323Z,11.05
2022-12-19T23:26:37.054Z,7.32
2022-12-19T23:29:07.803Z,6.43
2022-12-19T23:31:35.384Z,9.45
2022-12-19T23:34:02.844Z,10.35
2022-12-19T23:37:08.854Z,9.70
2022-12-19T23:39:17.663Z,7.55
2022-12-19T23:41:44.952Z,8.02
2022-12-19T23:44:12.610Z,7.50
2022-12-19T23:46:41.403Z,8.18
2022-12-19T23:49:08.717Z,7.63
2022-12-19T23:51:36.239Z,7.00
2022-12-19T23:54:04.358Z,9.77
2022-12-19T23:56:33.090Z,10.48
2022-12-19T23:59:00.895Z,8.43
